Time;durP1;ratioP1;P1;durP2;ratioP2;P2;SDS_P1;SDS_P2;PMS_P1;PMS_P2;Temp;Humidity;BMP_temperature;BMP_pressure;BME280_temperature;BME280_humidity;BME280_pressure;Samples;Min_cycle;Max_cycle;Signal;HPM_P1;HPM_P2
2020/12/19 00:04:26;20811.00;0.07;36.67;0.00;0.00;0.62;;;;;8.60;1.00;;;;;;2513160;40;3600;31
2020/12/19 00:06:52;70174.00;0.23;122.06;0.00;0.00;0.62;;;;;8.60;2.00;;;;;;2521338;40;3821;31
2020/12/19 00:11:51;125265.00;0.42;217.16;0.00;0.00;0.62;;;;;8.80;1.00;;;;;;2514528;40;3497;31
2020/12/19 00:16:46;388054.00;1.29;669.27;0.00;0.00;0.62;;;;;8.90;1.50;;;;;;2513460;40;3487;31
2020/12/19 00:21:41;26830.00;0.09;47.10;0.00;0.00;0.62;;;;;9.10;1.00;;;;;;2512301;55;3585;31
2020/12/19 00:24:07;211927.00;0.71;366.45;0.00;0.00;0.62;;;;;8.80;1.80;;;;;;2521358;55;3979;31
2020/12/19 00:31:29;83658.00;0.28;145.36;0.00;0.00;0.62;;;;;9.30;2.40;;;;;;2522393;40;3513;31
2020/12/19 00:33:57;141065.00;0.47;244.41;0.00;0.00;0.62;;;;;9.40;1.00;;;;;;2511028;55;3998;31
2020/12/19 00:38:51;103276.00;0.34;179.23;0.00;0.00;0.62;;;;;10.00;3.70;;;;;;2520746;55;3568;31
2020/12/19 00:41:18;102884.00;0.34;178.55;0.00;0.00;0.62;;;;;10.20;1.00;;;;;;2511688;55;3712;31
2020/12/19 00:43:45;135564.00;0.45;234.92;0.00;0.00;0.62;;;;;9.90;1.00;;;;;;2511713;40;3880;31
2020/12/19 00:46:11;129305.00;0.43;224.13;0.00;0.00;0.62;;;;;9.80;1.80;;;;;;2511781;55;3660;31
2020/12/19 00:48:38;62998.00;0.21;109.66;0.00;0.00;0.62;;;;;9.70;1.00;;;;;;2520850;55;3804;31
2020/12/19 00:51:05;81964.00;0.27;142.43;0.00;0.00;0.62;;;;;9.40;1.00;;;;;;2511463;55;3978;31
2020/12/19 00:53:31;11063.00;0.04;19.79;0.00;0.00;0.62;;;;;9.10;1.00;;;;;;2510897;55;4049;31
2020/12/19 00:58:25;86657.00;0.29;150.53;0.00;0.00;0.62;;;;;9.20;1.00;;;;;;2520103;55;3624;31
2020/12/19 01:05:51;86825.00;0.29;150.83;0.00;0.00;0.62;;;;;9.20;1.00;;;;;;2283063;61;1270;-91
2020/12/19 01:18:16;63367.00;0.21;110.30;0.00;0.00;0.62;;;;;9.10;1.20;;;;;;2515542;55;3596;31
2020/12/19 01:20:42;25478.00;0.08;44.76;0.00;0.00;0.62;;;;;9.10;1.00;;;;;;2514609;55;4011;31
2020/12/19 01:23:08;0.00;0.00;0.62;0.00;0.00;0.62;;;;;8.90;1.00;;;;;;2510274;55;3982;31
2020/12/19 01:25:35;41658.00;0.14;72.76;0.00;0.00;0.62;;;;;9.00;1.00;;;;;;2515250;40;3937;31
2020/12/19 01:35:25;129465.00;0.43;224.41;0.00;0.00;0.62;;;;;8.60;1.00;;;;;;2510245;55;3611;31
2020/12/19 01:42:47;161038.00;0.54;278.83;0.00;0.00;0.62;;;;;8.60;2.50;;;;;;2510971;40;3502;31
2020/12/19 01:45:13;40783.00;0.14;71.24;0.00;0.00;0.62;;;;;8.50;1.00;;;;;;2520450;40;3839;31
2020/12/19 01:47:40;28037.00;0.09;49.19;0.00;0.00;0.62;;;;;8.30;1.00;;;;;;2510968;40;3871;31
2020/12/19 01:52:36;74094.00;0.25;128.83;0.00;0.00;0.62;;;;;8.20;1.00;;;;;;2513496;40;3462;31
2020/12/19 01:55:03;135000.00;0.45;233.95;0.00;0.00;0.62;;;;;8.50;2.10;;;;;;2516571;55;3768;31
2020/12/19 01:57:30;26910.00;0.09;47.23;0.00;0.00;0.62;;;;;8.60;3.80;;;;;;2512337;40;3884;31
2020/12/19 01:59:57;70821.00;0.24;123.18;0.00;0.00;0.62;;;;;9.30;4.40;;;;;;2522775;55;3994;31
2020/12/19 02:02:26;29217.00;0.10;51.23;0.00;0.00;0.62;;;;;9.00;1.00;;;;;;2512621;40;3818;31
2020/12/19 02:24:47;87020.00;0.29;151.16;0.00;0.00;0.62;;;;;8.80;4.60;;;;;;2520947;55;3632;31
2020/12/19 02:32:41;377.00;0.00;1.27;0.00;0.00;0.62;;;;;8.20;1.00;;;;;;2512947;55;3707;31
2020/12/19 02:37:35;38960.00;0.13;68.09;0.00;0.00;0.62;;;;;8.30;1.70;;;;;;2518101;55;3605;31
2020/12/19 02:40:02;207227.00;0.69;358.36;0.00;0.00;0.62;;;;;8.60;1.60;;;;;;2522726;55;3831;31
2020/12/19 02:44:56;192414.00;0.64;332.86;77643.00;0.26;134.97;;;;;8.70;1.00;;;;;;2516426;40;3509;31
2020/12/19 02:57:14;364978.00;1.22;629.60;120382.00;0.40;208.74;;;;;8.00;1.00;;;;;;2510712;40;3471;31
2020/12/19 03:12:00;297191.00;0.99;513.09;88073.00;0.29;152.98;;;;;8.00;1.00;;;;;;2520485;40;3527;31
2020/12/19 03:29:14;370113.00;1.23;638.43;81655.00;0.27;141.90;;;;;8.30;1.10;;;;;;2519538;55;3586;31
2020/12/19 03:36:36;641635.00;2.14;1106.17;85782.00;0.29;149.02;;;;;8.00;1.00;;;;;;2520080;40;3506;31
2020/12/19 03:43:58;594351.00;1.98;1024.47;89531.00;0.30;155.50;;;;;7.10;1.00;;;;;;2521528;55;3634;31
2020/12/19 03:51:21;506946.00;1.69;873.78;85772.00;0.29;149.01;;;;;7.30;1.10;;;;;;2511140;55;3539;31
2020/12/19 03:53:47;628654.00;2.10;1083.72;97335.00;0.32;168.97;;;;;7.20;1.00;;;;;;2512541;40;3923;31
2020/12/19 04:01:09;586025.00;1.95;1010.10;81484.00;0.27;141.60;;;;;7.60;1.00;;;;;;2287518;61;903;-92
2020/12/19 04:06:03;538709.00;1.80;928.50;0.00;0.00;0.62;;;;;7.30;1.00;;;;;;2506693;55;3633;31
2020/12/19 04:08:30;334547.00;1.12;577.30;0.00;0.00;0.62;;;;;7.20;1.00;;;;;;2511237;55;3689;31
2020/12/19 04:13:24;428757.00;1.43;739.25;0.00;0.00;0.62;;;;;7.30;1.00;;;;;;2520675;40;3478;31
2020/12/19 04:20:46;308586.00;1.03;532.68;32340.00;0.11;56.63;;;;;7.30;1.00;;;;;;2511029;55;3626;31
2020/12/19 04:25:41;404796.00;1.35;698.05;0.00;0.00;0.62;;;;;7.30;1.00;;;;;;2512333;40;3489;31
2020/12/19 04:40:29;302749.00;1.01;522.65;0.00;0.00;0.62;;;;;7.70;4.50;;;;;;2287054;61;906;-92
2020/12/19 05:10:02;457031.00;1.52;787.88;87427.00;0.29;151.86;;;;;8.50;1.00;;;;;;2515473;40;3478;31
2020/12/19 05:54:23;426620.00;1.42;735.57;160587.00;0.54;278.05;;;;;11.30;1.00;;;;;;2523266;55;3605;31
2020/12/19 05:56:50;307105.00;1.02;530.13;81730.00;0.27;142.03;;;;;11.30;1.00;;;;;;2512572;40;3848;31
2020/12/19 06:06:40;218508.00;0.73;377.78;89790.00;0.30;155.95;;;;;10.50;1.00;;;;;;2521646;40;3469;31
2020/12/19 06:09:07;275209.00;0.92;475.30;82913.00;0.28;144.07;;;;;10.30;1.00;;;;;;2513619;40;3605;31
2020/12/19 06:11:39;213854.00;0.71;369.77;92579.00;0.31;160.76;;;;;9.60;1.00;;;;;;2512225;55;4026;31
2020/12/19 06:14:08;239960.00;0.80;414.68;90967.00;0.30;157.98;;;;;10.20;2.10;;;;;;2518546;40;3988;31
2020/12/19 06:16:37;0.00;0.00;0.62;0.00;0.00;0.62;;;;;10.60;1.00;;;;;;2522433;55;3815;31
2020/12/19 06:19:10;120136896.00;400.46;70240080.00;120004552.00;400.02;70007968.00;;;;;10.80;1.00;;;;;;2512999;55;3854;31
2020/12/19 06:21:37;97548.00;0.33;169.34;0.00;0.00;0.62;;;;;11.30;1.00;;;;;;2511954;55;4042;31
2020/12/19 06:26:35;35560.00;0.12;62.21;0.00;0.00;0.62;;;;;11.70;1.00;;;;;;2522691;40;3478;31
2020/12/19 06:31:29;0.00;0.00;0.62;0.00;0.00;0.62;;;;;11.80;1.00;;;;;;2514019;40;3568;31
2020/12/19 06:36:25;171509.00;0.57;296.87;0.00;0.00;0.62;;;;;11.00;1.00;;;;;;2513566;40;3482;31
2020/12/19 06:46:31;84556.00;0.28;146.91;0.00;0.00;0.62;;;;;8.10;1.00;;;;;;2516169;55;3637;31
2020/12/19 07:01:28;204875.00;0.68;354.31;0.00;0.00;0.62;;;;;9.30;1.00;;;;;;2291253;60;926;-88
2020/12/19 07:08:51;30476.00;0.10;53.41;0.00;0.00;0.62;;;;;10.60;1.00;;;;;;2522507;40;3439;31
2020/12/19 07:11:32;184383.00;0.61;319.04;0.00;0.00;0.62;;;;;10.90;1.00;;;;;;2512224;40;3825;31
2020/12/19 07:14:00;117910.00;0.39;204.48;0.00;0.00;0.62;;;;;10.80;1.00;;;;;;2520568;55;3957;31
2020/12/19 07:16:45;10247.00;0.03;18.38;0.00;0.00;0.62;;;;;11.20;1.00;;;;;;2512212;55;3733;31
2020/12/19 07:19:16;33426.00;0.11;58.51;0.00;0.00;0.62;;;;;10.80;1.00;;;;;;2521139;55;3761;31
2020/12/19 07:24:11;169747.00;0.57;293.83;0.00;0.00;0.62;;;;;10.60;1.00;;;;;;2514353;40;3418;31
2020/12/19 07:36:35;90001.00;0.30;156.31;0.00;0.00;0.62;;;;;11.30;1.00;;;;;;2519290;40;3452;31
2020/12/19 07:39:02;129935.00;0.43;225.22;0.00;0.00;0.62;;;;;11.20;1.00;;;;;;2512523;55;4063;31
2020/12/19 07:41:29;233177.00;0.78;403.01;0.00;0.00;0.62;;;;;11.10;1.00;;;;;;2518796;40;3568;31
2020/12/19 07:48:53;589293.00;1.96;1015.74;9992.00;0.03;17.94;;;;;10.70;1.00;;;;;;2517608;55;3645;31
2020/12/19 07:56:21;296928.00;0.99;512.64;85899.00;0.29;149.23;;;;;11.00;1.00;;;;;;2290702;60;1311;-84
2020/12/19 07:58:49;0.00;0.00;0.62;0.00;0.00;0.62;;;;;10.70;1.00;;;;;;2289135;60;1983;-84
2020/12/19 08:01:16;84752.00;0.28;147.24;0.00;0.00;0.62;;;;;10.80;1.00;;;;;;2289144;60;908;-85
2020/12/19 08:03:42;183282.00;0.61;317.14;0.00;0.00;0.62;;;;;10.80;1.00;;;;;;2289117;60;1291;-84
2020/12/19 08:06:09;0.00;0.00;0.62;0.00;0.00;0.62;;;;;10.90;1.00;;;;;;2289206;60;1091;-85
2020/12/19 08:13:43;1083971.00;3.61;1881.78;0.00;0.00;0.62;;;;;11.50;1.00;;;;;;2290658;60;1370;-85
2020/12/19 08:16:12;192967.00;0.64;333.82;0.00;0.00;0.62;;;;;11.60;1.00;;;;;;2288847;60;1078;-85
2020/12/19 08:18:39;177002.00;0.59;306.33;0.00;0.00;0.62;;;;;11.00;1.00;;;;;;2288869;60;1926;-84
2020/12/19 08:21:06;182798.00;0.61;316.31;0.00;0.00;0.62;;;;;11.30;1.00;;;;;;2289015;60;1104;-83
2020/12/19 08:23:33;174574.00;0.58;302.14;0.00;0.00;0.62;;;;;10.90;1.00;;;;;;2288911;60;1743;-83
2020/12/19 08:26:01;209893.00;0.70;362.95;0.00;0.00;0.62;;;;;10.40;1.00;;;;;;2289040;60;1730;-84
2020/12/19 08:28:28;439671.00;1.47;758.02;0.00;0.00;0.62;;;;;9.80;1.00;;;;;;2288962;60;1765;-85
2020/12/19 08:30:55;449927.00;1.50;775.66;5938.00;0.02;10.91;;;;;9.40;1.00;;;;;;2288589;60;1605;-85
2020/12/19 08:33:27;308136.00;1.03;531.91;63870.00;0.21;111.17;;;;;9.40;1.00;;;;;;2288793;60;1730;-85
2020/12/19 08:35:55;255020.00;0.85;440.58;0.00;0.00;0.62;;;;;9.40;1.00;;;;;;2288888;60;1812;-85
2020/12/19 08:38:24;232237.00;0.77;401.40;0.00;0.00;0.62;;;;;9.30;1.00;;;;;;2288935;60;1917;-85
2020/12/19 08:40:53;271934.00;0.91;469.67;0.00;0.00;0.62;;;;;9.20;1.00;;;;;;2289014;60;1814;-85
2020/12/19 08:43:21;222777.00;0.74;385.12;0.00;0.00;0.62;;;;;8.00;1.00;;;;;;2288815;60;1766;-85
2020/12/19 08:45:49;422872.00;1.41;729.13;87615.00;0.29;152.19;;;;;7.70;1.00;;;;;;2288855;60;1721;-85
2020/12/19 08:59:40;1093783.00;3.65;1899.31;0.00;0.00;0.62;;;;;8.80;1.00;;;;;;2290261;60;1972;-85
2020/12/19 09:05:42;306914.00;1.02;529.80;0.00;0.00;0.62;;;;;9.70;1.00;;;;;;2276139;61;972;-84
2020/12/19 09:08:37;246088.00;0.82;425.22;54177.00;0.18;94.41;;;;;10.00;1.00;;;;;;2268018;61;975;-84
2020/12/19 09:14:54;286181.00;0.95;494.16;0.00;0.00;0.62;;;;;9.30;1.00;;;;;;2251959;61;1453;-84
2020/12/19 09:20:39;43256.00;0.14;75.52;0.00;0.00;0.62;;;;;10.40;1.00;;;;;;2240193;61;1058;-84
2020/12/19 09:23:35;179609.00;0.60;310.82;62644.00;0.21;109.05;;;;;11.10;1.00;;;;;;2232224;62;1389;-84
2020/12/19 09:34:00;1447980.00;4.83;2545.61;76501.00;0.26;132.99;;;;;11.00;1.00;;;;;;2290462;60;1408;-84
2020/12/19 09:36:37;408768.00;1.36;704.88;91444.00;0.30;158.80;;;;;11.00;1.00;;;;;;2288789;60;955;-84
2020/12/19 09:39:14;554363.00;1.85;955.48;90382.00;0.30;156.97;;;;;11.20;1.00;;;;;;2284179;60;1927;-84
2020/12/19 09:41:44;605793.00;2.02;1044.22;84543.00;0.28;146.88;;;;;11.40;1.00;;;;;;2271978;61;964;-84
2020/12/19 09:44:13;594956.00;1.98;1025.51;100588.00;0.34;174.59;;;;;11.60;1.00;;;;;;2268846;61;1432;-84
2020/12/19 09:46:42;497689.00;1.66;857.85;0.00;0.00;0.62;;;;;11.70;1.00;;;;;;2263881;61;997;-85
2020/12/19 09:49:10;615106.00;2.05;1060.31;0.00;0.00;0.62;;;;;11.90;1.00;;;;;;2251960;61;1011;-85
2020/12/19 09:51:37;556037.00;1.85;958.37;54028.00;0.18;94.15;;;;;12.00;1.00;;;;;;2251929;61;984;-85
2020/12/19 09:54:04;758655.00;2.53;1309.11;38624.00;0.13;67.51;;;;;11.70;1.00;;;;;;2247903;61;1293;-84
2020/12/19 09:56:37;487352.00;1.62;840.05;0.00;0.00;0.62;;;;;11.60;1.00;;;;;;2249037;61;1005;-85
2020/12/19 09:59:04;419654.00;1.40;723.60;0.00;0.00;0.62;;;;;11.60;1.00;;;;;;2253762;61;1998;-85
2020/12/19 10:01:31;243556.00;0.81;420.87;0.00;0.00;0.62;;;;;11.70;1.00;;;;;;2259824;61;973;-86
2020/12/19 10:03:58;371708.00;1.24;641.17;0.00;0.00;0.62;;;;;11.80;1.00;;;;;;2258004;61;1308;-87
2020/12/19 10:06:25;395401.00;1.32;681.90;0.00;0.00;0.62;;;;;12.10;1.00;;;;;;2269220;61;1689;-85
2020/12/19 10:08:52;380079.00;1.27;655.56;0.00;0.00;0.62;;;;;12.20;1.00;;;;;;2276003;61;1622;-85
2020/12/19 10:11:24;273154.00;0.91;471.77;28363.00;0.09;49.75;;;;;12.20;1.00;;;;;;2276719;61;1625;-85
2020/12/19 10:13:50;182295.00;0.61;315.44;0.00;0.00;0.62;;;;;12.20;1.00;;;;;;2280123;61;1797;-85
2020/12/19 10:16:18;301090.00;1.00;519.79;62802.00;0.21;109.32;;;;;12.50;1.00;;;;;;2282626;60;1612;-85
2020/12/19 10:18:45;432408.00;1.44;745.53;16149.00;0.05;28.60;;;;;12.30;1.00;;;;;;2284167;60;1919;-83
2020/12/19 10:21:12;537007.00;1.79;925.57;6409.00;0.02;11.73;;;;;12.70;1.00;;;;;;2284920;60;1724;-84
2020/12/19 10:23:39;457968.00;1.53;789.49;0.00;0.00;0.62;;;;;12.70;1.00;;;;;;2288663;60;1709;-86
2020/12/19 10:26:05;304890.00;1.02;526.33;50633.00;0.17;88.28;;;;;12.90;1.00;;;;;;2288712;60;1941;-85
2020/12/19 10:28:32;267405.00;0.89;461.88;0.00;0.00;0.62;;;;;13.30;1.00;;;;;;2288634;60;1626;-86
2020/12/19 10:30:59;331148.00;1.10;571.46;72499.00;0.24;126.08;;;;;12.90;1.00;;;;;;2288723;60;1187;-85
2020/12/19 10:33:27;506856.00;1.69;873.63;0.00;0.00;0.62;;;;;13.20;1.00;;;;;;2288532;60;1764;-85
2020/12/19 10:35:54;293965.00;0.98;507.55;0.00;0.00;0.62;;;;;13.50;1.00;;;;;;2288572;60;936;-86
2020/12/19 10:38:21;374546.00;1.25;646.05;60904.00;0.20;106.04;;;;;13.80;1.00;;;;;;2288611;60;2088;-85
2020/12/19 10:40:48;411148.00;1.37;708.97;11105.00;0.04;19.86;;;;;14.20;1.00;;;;;;2288668;60;921;-87
2020/12/19 10:43:15;358249.00;1.19;618.04;57355.00;0.19;99.90;;;;;13.90;1.00;;;;;;2288642;60;1385;-86
2020/12/19 10:45:42;373778.00;1.25;644.73;0.00;0.00;0.62;;;;;13.90;1.00;;;;;;2288723;60;813;-86
2020/12/19 10:48:08;380041.00;1.27;655.50;0.00;0.00;0.62;;;;;14.20;1.00;;;;;;2288728;60;917;-86
2020/12/19 10:50:36;362576.00;1.21;625.48;0.00;0.00;0.62;;;;;14.30;1.00;;;;;;2288700;60;945;-87
2020/12/19 10:53:03;405835.00;1.35;699.84;34704.00;0.12;60.72;;;;;14.10;1.00;;;;;;2288687;60;1387;-86
2020/12/19 10:55:29;373944.00;1.25;645.02;51470.00;0.17;89.73;;;;;14.20;1.00;;;;;;2288479;60;1737;-87
2020/12/19 10:57:56;274072.00;0.91;473.35;7503.00;0.03;13.62;;;;;14.10;1.00;;;;;;2288594;60;1674;-85
2020/12/19 11:00:23;512191.00;1.71;882.82;0.00;0.00;0.62;;;;;13.70;1.00;;;;;;2288506;60;2006;-84
2020/12/19 11:02:50;441135.00;1.47;760.53;78418.00;0.26;136.30;;;;;13.60;1.00;;;;;;2288468;60;1368;-85
2020/12/19 11:05:16;1067899.00;3.56;1853.11;193928.00;0.65;335.47;;;;;13.70;1.00;;;;;;2288366;60;1635;-85
2020/12/19 11:07:44;484899.00;1.62;835.83;28431.00;0.09;49.87;;;;;13.60;1.00;;;;;;2288574;60;1594;-85
2020/12/19 11:10:10;171217.00;0.57;296.36;0.00;0.00;0.62;;;;;13.40;1.00;;;;;;2288653;60;897;-86
2020/12/19 11:12:37;404448.00;1.35;697.45;15789.00;0.05;27.98;;;;;13.50;1.00;;;;;;2288577;60;1768;-85
2020/12/19 11:15:04;516473.00;1.72;890.19;45366.00;0.15;79.17;;;;;13.20;1.00;;;;;;2288572;60;1756;-86
2020/12/19 11:17:31;336365.00;1.12;580.43;0.00;0.00;0.62;;;;;13.20;1.00;;;;;;2288531;60;1592;-87
2020/12/19 11:19:58;217178.00;0.72;375.49;6178.00;0.02;11.33;;;;;13.40;1.00;;;;;;2288480;60;1988;-86
2020/12/19 11:22:25;303934.00;1.01;524.68;31661.00;0.11;55.46;;;;;14.00;1.00;;;;;;2288493;60;1774;-87
2020/12/19 11:24:53;251854.00;0.84;435.14;0.00;0.00;0.62;;;;;14.00;1.00;;;;;;2288602;60;1252;-87
2020/12/19 11:27:20;376665.00;1.26;649.69;61545.00;0.21;107.15;;;;;14.30;1.00;;;;;;2288562;60;1589;-86
2020/12/19 11:29:47;215167.00;0.72;372.03;15578.00;0.05;27.61;;;;;14.60;1.00;;;;;;2288530;60;1764;-87
2020/12/19 11:32:14;211634.00;0.71;365.95;40314.00;0.13;70.43;;;;;14.90;1.00;;;;;;2288484;60;1144;-86
2020/12/19 11:34:41;379226.00;1.26;654.09;0.00;0.00;0.62;;;;;15.10;1.00;;;;;;2288392;60;1338;-86
2020/12/19 11:37:07;224019.00;0.75;387.26;0.00;0.00;0.62;;;;;15.20;1.00;;;;;;2288530;60;1722;-86
2020/12/19 11:39:34;264300.00;0.88;456.54;22264.00;0.07;39.19;;;;;14.80;1.00;;;;;;2288452;60;1997;-86
2020/12/19 11:42:02;509922.00;1.70;878.91;27810.00;0.09;48.79;;;;;14.10;1.00;;;;;;2288638;60;1015;-86
2020/12/19 11:44:29;215672.00;0.72;372.90;0.00;0.00;0.62;;;;;13.70;1.00;;;;;;2288542;60;1291;-86
2020/12/19 11:46:56;524574.00;1.75;904.14;88668.00;0.30;154.01;;;;;14.20;1.00;;;;;;2288546;60;1024;-85
2020/12/19 11:49:23;173059.00;0.58;299.54;0.00;0.00;0.62;;;;;14.40;1.00;;;;;;2288531;60;1757;-86
2020/12/19 11:51:49;262865.00;0.88;454.08;0.00;0.00;0.62;;;;;14.70;1.00;;;;;;2288502;60;1742;-85
2020/12/19 11:54:16;189502.00;0.63;327.85;0.00;0.00;0.62;;;;;14.60;1.00;;;;;;2288474;60;1325;-86
2020/12/19 11:56:43;169967.00;0.57;294.21;0.00;0.00;0.62;;;;;14.80;1.00;;;;;;2288517;60;1582;-88
2020/12/19 11:59:10;325409.00;1.08;561.60;47240.00;0.16;82.41;;;;;15.20;1.00;;;;;;2288423;60;2016;-85
2020/12/19 12:01:37;220134.00;0.73;380.57;57497.00;0.19;100.15;;;;;15.50;1.00;;;;;;2288415;60;1734;-86
2020/12/19 12:04:04;192405.00;0.64;332.85;0.00;0.00;0.62;;;;;15.90;1.00;;;;;;2288424;60;1733;-87
2020/12/19 12:06:32;305810.00;1.02;527.91;8592.00;0.03;15.51;;;;;16.20;1.00;;;;;;2288994;60;1676;-85
2020/12/19 12:09:00;132677.00;0.44;229.95;0.00;0.00;0.62;;;;;16.20;1.00;;;;;;2289142;60;1749;-86
2020/12/19 12:11:28;239228.00;0.80;413.42;0.00;0.00;0.62;;;;;16.30;1.00;;;;;;2289156;60;1771;-86
2020/12/19 12:13:55;157144.00;0.52;272.12;0.00;0.00;0.62;;;;;16.40;1.00;;;;;;2289078;60;1386;-86
2020/12/19 12:16:24;333908.00;1.11;576.20;72874.00;0.24;126.73;;;;;16.60;1.00;;;;;;2289199;60;1719;-87
2020/12/19 12:18:51;287528.00;0.96;496.48;56918.00;0.19;99.15;;;;;16.60;1.00;;;;;;2289101;60;1914;-87
2020/12/19 12:21:17;227401.00;0.76;393.08;0.00;0.00;0.62;;;;;16.40;1.00;;;;;;2289169;60;1718;-88
2020/12/19 12:23:45;235729.00;0.79;407.40;0.00;0.00;0.62;;;;;16.40;1.00;;;;;;2289105;60;1699;-87
2020/12/19 12:26:12;218343.00;0.73;377.49;0.00;0.00;0.62;;;;;16.50;1.00;;;;;;2289046;60;1659;-86
2020/12/19 12:28:40;153919.00;0.51;266.56;0.00;0.00;0.62;;;;;16.40;1.00;;;;;;2289117;60;1086;-87
2020/12/19 12:31:07;355236.00;1.18;612.86;24679.00;0.08;43.37;;;;;16.40;1.00;;;;;;2289101;60;1614;-87
2020/12/19 12:33:34;171799.00;0.57;297.37;0.00;0.00;0.62;;;;;16.30;1.00;;;;;;2288926;60;1804;-87
2020/12/19 12:36:01;271798.00;0.91;469.44;0.00;0.00;0.62;;;;;16.40;1.00;;;;;;2289086;60;1624;-88
2020/12/19 12:38:28;141877.00;0.47;245.81;0.00;0.00;0.62;;;;;16.40;1.00;;;;;;2289045;60;1993;-87
2020/12/19 12:40:54;207908.00;0.69;359.53;20712.00;0.07;36.50;;;;;16.20;1.00;;;;;;2289192;60;816;-87
2020/12/19 12:43:21;153653.00;0.51;266.10;0.00;0.00;0.62;;;;;15.90;1.00;;;;;;2289115;60;1749;-88
2020/12/19 12:45:47;187064.00;0.62;323.65;0.00;0.00;0.62;;;;;15.50;1.00;;;;;;2289028;60;1613;-87
2020/12/19 12:48:14;161512.00;0.54;279.64;0.00;0.00;0.62;;;;;15.60;1.00;;;;;;2289136;60;1788;-87
2020/12/19 12:50:41;137083.00;0.46;237.54;0.00;0.00;0.62;;;;;15.60;1.00;;;;;;2289095;60;1098;-87
2020/12/19 12:53:09;141905.00;0.47;245.85;0.00;0.00;0.62;;;;;15.50;1.00;;;;;;2289126;60;1307;-89
2020/12/19 12:55:35;292706.00;0.98;505.38;0.00;0.00;0.62;;;;;15.50;1.00;;;;;;2289032;60;1744;-87
2020/12/19 12:58:02;219432.00;0.73;379.37;0.00;0.00;0.62;;;;;15.50;1.00;;;;;;2288977;60;1788;-87
2020/12/19 13:00:29;349986.00;1.17;603.84;4919.00;0.02;9.15;;;;;15.70;1.00;;;;;;2288987;60;2008;-87
2020/12/19 13:02:55;216522.00;0.72;374.36;61290.00;0.20;106.71;;;;;16.00;1.00;;;;;;2288987;60;1398;-87
2020/12/19 13:05:22;293423.00;0.98;506.61;8738.00;0.03;15.76;;;;;16.20;1.00;;;;;;2288911;60;1761;-86
2020/12/19 13:07:49;197345.00;0.66;341.35;0.00;0.00;0.62;;;;;16.20;1.00;;;;;;2289015;60;1716;-88
2020/12/19 13:10:16;292074.00;0.97;504.29;29084.00;0.10;51.00;;;;;16.30;1.00;;;;;;2289033;60;1677;-87
2020/12/19 13:12:43;336831.00;1.12;581.23;70395.00;0.23;122.44;;;;;16.20;1.00;;;;;;2288965;60;1687;-87
2020/12/19 13:15:10;283252.00;0.94;489.13;8298.00;0.03;15.00;;;;;16.20;1.00;;;;;;2289098;60;1783;-87
2020/12/19 13:17:36;242685.00;0.81;419.37;0.00;0.00;0.62;;;;;16.30;1.00;;;;;;2288927;60;1047;-86
2020/12/19 13:20:03;247503.00;0.83;427.66;0.00;0.00;0.62;;;;;16.30;1.00;;;;;;2288957;60;2008;-86
2020/12/19 13:22:30;181322.00;0.60;313.77;36472.00;0.12;63.78;;;;;16.40;1.00;;;;;;2288824;60;1706;-86
2020/12/19 13:24:58;186546.00;0.62;322.76;0.00;0.00;0.62;;;;;16.50;1.00;;;;;;2289075;60;917;-86
2020/12/19 13:27:24;237142.00;0.79;409.84;0.00;0.00;0.62;;;;;16.60;1.00;;;;;;2288962;60;1784;-85
2020/12/19 13:29:51;284721.00;0.95;491.65;72937.00;0.24;126.84;;;;;16.60;1.00;;;;;;2288960;60;1713;-86
2020/12/19 13:32:17;256340.00;0.85;442.85;0.00;0.00;0.62;;;;;16.50;1.00;;;;;;2288928;60;1755;-86
2020/12/19 13:34:44;299120.00;1.00;516.41;21000.00;0.07;37.00;;;;;16.40;1.00;;;;;;2288886;60;1366;-87
2020/12/19 13:37:11;152577.00;0.51;264.25;0.00;0.00;0.62;;;;;16.40;1.00;;;;;;2288870;60;1085;-86
2020/12/19 13:39:37;201936.00;0.67;349.26;537.00;0.00;1.55;;;;;16.40;1.00;;;;;;2288890;60;1984;-86
2020/12/19 13:42:05;258960.00;0.86;447.36;38984.00;0.13;68.13;;;;;16.60;1.00;;;;;;2288857;60;1651;-86
2020/12/19 13:44:32;257662.00;0.86;445.13;0.00;0.00;0.62;;;;;16.70;1.00;;;;;;2288806;60;1694;-88
2020/12/19 13:46:58;246449.00;0.82;425.84;0.00;0.00;0.62;;;;;16.70;1.00;;;;;;2288938;60;916;-86
2020/12/19 13:49:25;164618.00;0.55;285.00;0.00;0.00;0.62;;;;;16.80;1.00;;;;;;2288794;60;1653;-87
2020/12/19 13:51:52;218123.00;0.73;377.11;0.00;0.00;0.62;;;;;16.70;1.00;;;;;;2288907;60;1775;-87
2020/12/19 13:54:18;167274.00;0.56;289.57;0.00;0.00;0.62;;;;;16.60;1.00;;;;;;2288839;60;1750;-89
2020/12/19 13:56:45;0.00;0.00;0.62;0.00;0.00;0.62;;;;;16.60;1.00;;;;;;2278390;60;1004;-90
2020/12/19 13:59:13;101157.00;0.34;175.57;22424.00;0.07;39.47;;;;;16.50;1.00;;;;;;2276141;61;1936;-90
2020/12/19 14:01:40;143771.00;0.48;249.07;9455.00;0.03;17.00;;;;;16.50;1.00;;;;;;2271982;61;969;-90
2020/12/19 14:04:06;5107.00;0.02;9.47;0.00;0.00;0.62;;;;;16.50;1.00;;;;;;2268553;61;1455;-89
2020/12/19 14:06:33;20102.00;0.07;35.45;0.00;0.00;0.62;;;;;16.50;1.00;;;;;;2271932;61;989;-90
2020/12/19 14:09:00;150125.00;0.50;260.02;0.00;0.00;0.62;;;;;16.60;1.00;;;;;;2271908;61;1154;-89
2020/12/19 14:11:27;172051.00;0.57;297.80;0.00;0.00;0.62;;;;;16.70;1.00;;;;;;2271997;61;1652;-90
2020/12/19 14:13:54;164512.00;0.55;284.81;0.00;0.00;0.62;;;;;16.80;1.00;;;;;;2271970;61;1417;-89
2020/12/19 14:16:29;363750.00;1.21;627.49;88204.00;0.29;153.21;;;;;16.90;1.00;;;;;;2273006;61;1705;-90
2020/12/19 14:18:55;72521.00;0.24;126.12;0.00;0.00;0.62;;;;;17.00;1.00;;;;;;2281582;60;1935;-89
2020/12/19 14:21:22;137823.00;0.46;238.82;41169.00;0.14;71.91;;;;;17.00;1.00;;;;;;2287768;60;1040;-89
2020/12/19 14:23:48;0.00;0.00;0.62;0.00;0.00;0.62;;;;;16.80;1.00;;;;;;2280024;60;1398;-89
2020/12/19 14:26:21;95669.00;0.32;166.10;23027.00;0.08;40.51;;;;;16.80;1.00;;;;;;2280131;60;1040;-88
2020/12/19 14:28:49;362111.00;1.21;624.68;97046.00;0.32;168.47;;;;;16.80;1.00;;;;;;2273204;60;1050;-89
2020/12/19 14:31:16;43881.00;0.15;76.60;0.00;0.00;0.62;;;;;16.80;1.00;;;;;;2273334;60;1033;-88
2020/12/19 14:33:43;115610.00;0.39;200.51;0.00;0.00;0.62;;;;;16.60;1.00;;;;;;2279976;60;1392;-89
2020/12/19 14:36:15;155832.00;0.52;269.86;0.00;0.00;0.62;;;;;16.60;1.00;;;;;;2267960;61;1085;-89
2020/12/19 14:38:42;84391.00;0.28;146.62;0.00;0.00;0.62;;;;;16.60;1.00;;;;;;2264504;61;2004;-89
2020/12/19 14:41:10;117203.00;0.39;203.26;10590.00;0.04;18.97;;;;;16.70;1.00;;;;;;2269689;61;1024;-89
2020/12/19 14:43:38;29023.00;0.10;50.89;0.00;0.00;0.62;;;;;16.70;1.00;;;;;;2275929;61;1319;-91
2020/12/19 14:46:05;2288.00;0.01;4.59;0.00;0.00;0.62;;;;;16.70;1.00;;;;;;2276025;61;937;-90
2020/12/19 14:48:31;43051.00;0.14;75.17;0.00;0.00;0.62;;;;;16.60;1.00;;;;;;2276047;61;1053;-90
2020/12/19 14:50:58;40070.00;0.13;70.01;0.00;0.00;0.62;;;;;16.70;1.00;;;;;;2266023;61;1017;-90
2020/12/19 14:53:25;67687.00;0.23;117.76;0.00;0.00;0.62;;;;;16.70;1.00;;;;;;2275833;61;1435;-89
2020/12/19 14:58:20;219779.00;0.73;379.96;0.00;0.00;0.62;;;;;16.70;1.00;;;;;;2290845;60;1309;-89
2020/12/19 15:03:15;362229.00;1.21;624.88;0.00;0.00;0.62;;;;;16.80;1.00;;;;;;2290847;60;1370;-88
2020/12/19 15:05:42;19867.00;0.07;35.04;0.00;0.00;0.62;;;;;16.70;1.00;;;;;;2281396;60;1047;-89
2020/12/19 15:13:05;101121.00;0.34;175.51;0.00;0.00;0.62;;;;;16.40;1.00;;;;;;2290513;60;1348;-89
2020/12/19 15:15:31;55840.00;0.19;97.28;0.00;0.00;0.62;;;;;16.40;1.00;;;;;;2288684;60;1050;-89
2020/12/19 15:17:58;0.00;0.00;0.62;0.00;0.00;0.62;;;;;16.60;1.00;;;;;;2279834;61;1048;-89
2020/12/19 15:20:24;74304.00;0.25;129.20;0.00;0.00;0.62;;;;;16.60;1.00;;;;;;2276589;61;1922;-90
2020/12/19 15:22:50;23219.00;0.08;40.84;0.00;0.00;0.62;;;;;16.70;1.00;;;;;;2276532;61;1452;-88
2020/12/19 15:27:45;211918.00;0.71;366.44;0.00;0.00;0.62;;;;;16.70;1.00;;;;;;2290532;60;1403;-89
2020/12/19 15:30:12;146101.00;0.49;253.09;0.00;0.00;0.62;;;;;16.70;1.00;;;;;;2283974;60;927;-87
2020/12/19 15:32:38;0.00;0.00;0.62;0.00;0.00;0.62;;;;;16.70;1.00;;;;;;2275808;61;1392;-88
2020/12/19 15:37:34;196620.00;0.66;340.11;0.00;0.00;0.62;;;;;16.80;1.00;;;;;;2290171;60;1218;-88
2020/12/19 15:40:00;80103.00;0.27;139.22;0.00;0.00;0.62;;;;;16.80;1.00;;;;;;2284632;60;1985;-90